LFBO/TLS METAR and TAF weather

Enter ICAO airport designator
Station Type Date Time Source
LFBO METAR 2020/10/22 03:00 UTC NOAA

LFBO 220300Z AUTO 11006KT 9999 BKN019 BKN170 OVC210 17/15 Q1012 BECMG BKN013


Station Type Date Time Source
LFBO Decoded METAR 2020/10/22 03:00 UTC NOAA

Toulouse / Blagnac, France (LFBO) 43-38N 001-22E 153M
Oct 21, 2020 - 11:00 PM EDT / 2020.10.22 0300 UTC
Wind: from the ESE (110 degrees) at 7 MPH (6 KT):0
Visibility: greater than 7 mile(s):0
Sky conditions: overcast
Temperature: 62 F (17 C)
Dew Point: 59 F (15 C)
Relative Humidity: 88%
Pressure (altimeter): 29.88 in. Hg (1012 hPa)
ob: LFBO 220300Z AUTO 11006KT 9999 BKN019 BKN170 OVC210 17/15 Q1012 BECMG BKN013
cycle: 3

Station Type Date Time Source
LFBO TAF 2020/10/21 18:42 UTC NOAA

TAF TAF LFBO 211700Z 2118/2224 13012G22KT 9999 BKN018
TEMPO 2118/2206 BKN013 PROB40
TEMPO 2119/2205 BKN009
TEMPO 2206/2211 -RA BKN013 SCT080TCU BKN090
BECMG 2211/2213 CAVOK
TEMPO 2214/2218 13016G32KT
TEMPO 2214/2224 BKN013 PROB40
TEMPO 2221/2224 BKN009

Example: see airport list